Grand Canyon, Arizona
Current Conditions -  °F | °C
As of 5:54 PM on Monday 24 Nov 2014 (Local Time) from KGCN Reporting Station
Clear Clear  
Wind Chill: 32°   Ceiling: Unl
Heat Index: 38°   Visibility: 10mi
Dew Point: -7°   Wind: 8mph
Humidity: 15%   Direction: 10°N
Pressure: 30.35"   Gusts: 20mph
Location:  36.05°N, 112.14°W
Report Text: KGCN 250054Z 01007G17KT 10SM CLR 03/M22 A3035 RMK AO2 SLP307 T00331217
Loading
Personal Weather Stations






























Interactive Weather Map New forecast layout! Learn more

10-Day Weather Forecast

Advertisements
Track Severe Weather on mobile